PAPE

Perryville Airport

Airport
ICAO code
PAPE
IATA Code
KPV
Summary
ICAO Region
NAM
ICAO Territory
Location

, Alaska

Serving
Perryville
Elevation
29 ft
Coordinates
55° 54' 24" N , 159° 9' 39" W
Metar
PAPE 201856Z AUTO 10009KT 10SM BKN027 OVC031 10/08 A2990 RMK AO2 SLP121 T01000078

Runways

Designator Length Width Surface Rops
2/20 1006 23 GRVL-G No/No

Airport map

Aerial View

SKYbrary Partners:

Safety knowledge contributed by: